createdAt,value
2023-01-15T00:02:18.305Z,79.92
2023-01-15T00:04:45.014Z,80.10
2023-01-15T00:07:11.711Z,79.95
2023-01-15T00:09:38.383Z,79.75
2023-01-15T00:12:05.329Z,79.81
2023-01-15T00:14:31.997Z,79.90
2023-01-15T00:16:58.726Z,79.73
2023-01-15T00:19:25.422Z,79.76
2023-01-15T00:21:53.876Z,79.50
2023-01-15T00:24:39.257Z,79.58
2023-01-15T00:27:24.546Z,79.50
2023-01-15T00:29:51.226Z,79.57
2023-01-15T00:32:17.927Z,79.54
2023-01-15T00:34:44.607Z,79.46
2023-01-15T00:37:11.265Z,79.48
2023-01-15T00:39:38.000Z,79.40
2023-01-15T00:42:04.679Z,79.27
2023-01-15T00:44:33.617Z,79.36
2023-01-15T00:47:00.576Z,79.40
2023-01-15T00:49:27.250Z,79.48
2023-01-15T00:51:53.950Z,79.61
2023-01-15T00:54:20.660Z,79.70
2023-01-15T00:56:47.357Z,79.75
2023-01-15T00:59:14.068Z,79.89
2023-01-15T01:01:41.048Z,80.05
2023-01-15T01:04:07.795Z,79.98
2023-01-15T01:06:34.919Z,79.91
2023-01-15T01:09:01.640Z,80.18
2023-01-15T01:11:34.155Z,80.11
2023-01-15T01:14:03.845Z,80.20
2023-01-15T01:16:38.482Z,80.50
2023-01-15T01:19:07.351Z,80.38
2023-01-15T01:21:34.108Z,80.28
2023-01-15T01:24:01.078Z,80.40
2023-01-15T01:26:28.730Z,80.52
2023-01-15T01:28:56.004Z,80.54
2023-01-15T01:31:23.164Z,80.49
2023-01-15T01:33:50.890Z,80.52
2023-01-15T01:36:17.933Z,80.43
2023-01-15T01:38:45.111Z,80.66
2023-01-15T01:41:11.791Z,80.78
2023-01-15T01:44:02.797Z,80.79
2023-01-15T01:46:31.255Z,80.83
2023-01-15T01:49:00.614Z,80.70
2023-01-15T01:51:30.077Z,80.77
2023-01-15T01:53:56.822Z,80.60
2023-01-15T01:56:24.119Z,80.65
2023-01-15T01:58:53.188Z,80.45
2023-01-15T02:01:20.007Z,80.46
2023-01-15T02:03:46.771Z,80.48
2023-01-15T02:06:13.659Z,80.47
2023-01-15T02:08:40.381Z,80.35
2023-01-15T02:11:07.803Z,80.38
2023-01-15T02:13:39.339Z,80.32
2023-01-15T02:16:16.899Z,80.30
2023-01-15T02:18:49.043Z,80.31
2023-01-15T02:21:48.888Z,80.44
2023-01-15T02:24:32.087Z,80.83
2023-01-15T02:27:15.695Z,80.64
2023-01-15T02:29:56.467Z,80.74
2023-01-15T02:32:52.488Z,80.87
2023-01-15T02:35:42.563Z,80.87
2023-01-15T02:38:12.624Z,80.73
2023-01-15T02:40:39.374Z,80.75
2023-01-15T02:43:06.023Z,80.89
2023-01-15T02:45:33.825Z,80.82
2023-01-15T02:48:06.947Z,80.65
2023-01-15T02:50:36.998Z,80.57
2023-01-15T02:53:07.714Z,80.52
2023-01-15T02:55:36.662Z,80.46
2023-01-15T02:58:05.771Z,80.29
2023-01-15T03:00:35.763Z,80.22
2023-01-15T03:03:09.413Z,80.30
2023-01-15T03:05:39.107Z,80.26
2023-01-15T03:08:07.339Z,80.49
2023-01-15T03:11:17.067Z,80.68
2023-01-15T03:13:54.624Z,80.84
2023-01-15T03:16:50.360Z,80.77
2023-01-15T03:19:40.407Z,80.86
2023-01-15T03:22:25.970Z,80.82
2023-01-15T03:24:59.640Z,80.79
2023-01-15T03:27:28.021Z,80.92
2023-01-15T03:30:04.421Z,80.75
2023-01-15T03:32:31.449Z,80.87
2023-01-15T03:34:58.590Z,80.83
2023-01-15T03:37:25.860Z,80.74
2023-01-15T03:39:53.731Z,80.55
2023-01-15T03:42:40.722Z,80.57
2023-01-15T03:45:16.653Z,80.43
2023-01-15T03:48:03.078Z,80.48
2023-01-15T03:51:00.725Z,80.41
2023-01-15T03:53:34.125Z,80.34
2023-01-15T03:56:03.656Z,80.16
2023-01-15T03:58:41.537Z,80.08
2023-01-15T04:01:10.902Z,80.11
2023-01-15T04:03:38.045Z,80.17
2023-01-15T04:06:05.659Z,80.08
2023-01-15T04:08:38.658Z,80.13
2023-01-15T04:11:05.557Z,80.05
2023-01-15T04:13:38.918Z,79.92
2023-01-15T04:16:08.621Z,79.99
2023-01-15T04:18:35.909Z,80.00
2023-01-15T04:21:04.770Z,79.93
2023-01-15T04:23:33.781Z,79.94
2023-01-15T04:26:00.490Z,79.94
2023-01-15T04:28:27.173Z,79.75
2023-01-15T04:30:56.700Z,79.76
2023-01-15T04:33:23.461Z,79.75
2023-01-15T04:35:50.142Z,79.63
2023-01-15T04:38:18.066Z,79.48
2023-01-15T04:41:03.509Z,79.45
2023-01-15T04:43:48.817Z,79.41
2023-01-15T04:46:15.585Z,79.34
2023-01-15T04:48:42.524Z,79.28
2023-01-15T04:51:09.380Z,79.01
2023-01-15T04:53:36.124Z,79.14
2023-01-15T04:56:03.790Z,79.08
2023-01-15T04:58:30.582Z,78.94
2023-01-15T05:00:57.436Z,78.99
2023-01-15T05:03:24.213Z,78.98
2023-01-15T05:05:51.024Z,78.96
2023-01-15T05:08:17.811Z,79.06
2023-01-15T05:10:44.594Z,78.97
2023-01-15T05:13:11.415Z,79.01
2023-01-15T05:15:40.668Z,79.11
2023-01-15T05:18:07.450Z,79.15
2023-01-15T05:20:37.007Z,79.20
2023-01-15T05:23:03.767Z,79.29
2023-01-15T05:25:30.556Z,79.27
2023-01-15T05:27:57.351Z,79.30
2023-01-15T05:30:24.097Z,79.40
2023-01-15T05:32:51.545Z,79.39
2023-01-15T05:35:18.375Z,79.50
2023-01-15T05:37:45.199Z,79.36
2023-01-15T05:40:14.165Z,79.45
2023-01-15T05:42:44.160Z,79.46
2023-01-15T05:45:15.116Z,79.48
2023-01-15T05:47:45.007Z,79.60
2023-01-15T05:50:15.169Z,79.69
2023-01-15T05:52:45.143Z,79.61
2023-01-15T05:55:15.165Z,79.48
2023-01-15T05:57:44.948Z,79.50
2023-01-15T06:00:14.171Z,79.50
2023-01-15T06:02:44.151Z,79.48
2023-01-15T06:05:15.176Z,79.55
2023-01-15T06:07:44.602Z,79.65
2023-01-15T06:10:13.912Z,79.49
2023-01-15T06:12:43.075Z,79.57
2023-01-15T06:15:13.063Z,79.62
2023-01-15T06:17:43.134Z,79.56
2023-01-15T06:20:12.578Z,79.65
2023-01-15T06:22:42.195Z,79.67
2023-01-15T06:25:11.970Z,79.57
2023-01-15T06:27:44.504Z,79.47
2023-01-15T06:30:14.179Z,79.47
2023-01-15T06:32:44.138Z,79.38
2023-01-15T06:35:15.143Z,79.46
2023-01-15T06:37:45.546Z,79.28
2023-01-15T06:47:49.416Z,79.07
2023-01-15T06:50:16.847Z,79.13
2023-01-15T06:52:43.637Z,79.08
2023-01-15T06:55:11.686Z,79.30
2023-01-15T06:57:40.017Z,79.32
2023-01-15T07:00:08.615Z,79.43
2023-01-15T07:02:35.462Z,79.34
2023-01-15T07:05:02.441Z,79.44
2023-01-15T07:07:29.911Z,79.48
2023-01-15T07:09:56.771Z,79.59
2023-01-15T07:12:23.680Z,79.57
2023-01-15T07:14:50.400Z,79.71
2023-01-15T07:17:17.163Z,79.74
2023-01-15T07:19:44.909Z,79.47
2023-01-15T07:22:11.689Z,79.41
2023-01-15T07:24:38.484Z,79.38
2023-01-15T07:27:05.869Z,79.43
2023-01-15T07:29:32.591Z,79.31
2023-01-15T07:31:59.505Z,79.34
2023-01-15T07:34:26.197Z,79.34
2023-01-15T07:36:52.969Z,79.32
2023-01-15T07:39:19.784Z,79.41
2023-01-15T07:42:05.389Z,79.42
2023-01-15T07:44:53.613Z,79.43
2023-01-15T07:47:40.741Z,79.39
2023-01-15T07:50:12.526Z,79.36
2023-01-15T07:52:39.442Z,79.26
2023-01-15T07:55:08.600Z,79.20
2023-01-15T07:57:35.504Z,79.16
2023-01-15T08:00:02.362Z,79.09
2023-01-15T08:02:39.336Z,79.26
2023-01-15T08:05:06.852Z,79.10
2023-01-15T08:07:40.741Z,78.97
2023-01-15T08:10:09.202Z,78.97
2023-01-15T08:12:57.123Z,78.85
2023-01-15T08:15:24.956Z,78.57
2023-01-15T08:17:51.678Z,78.64
2023-01-15T08:20:20.775Z,78.62
2023-01-15T08:22:48.247Z,78.48
2023-01-15T08:25:17.437Z,78.56
2023-01-15T08:27:44.318Z,78.37
2023-01-15T08:30:13.758Z,78.22
2023-01-15T08:32:40.560Z,78.31
2023-01-15T08:35:07.970Z,77.97
2023-01-15T08:37:35.269Z,77.69
2023-01-15T08:40:02.110Z,77.58
2023-01-15T08:42:28.892Z,77.52
2023-01-15T08:44:55.609Z,77.38
2023-01-15T08:47:22.300Z,77.20
2023-01-15T08:49:49.153Z,77.15
2023-01-15T08:52:16.074Z,77.22
2023-01-15T08:54:43.490Z,77.32
2023-01-15T08:57:12.184Z,77.11
2023-01-15T08:59:38.952Z,77.20
2023-01-15T09:02:05.732Z,76.94
2023-01-15T09:04:32.692Z,76.72
2023-01-15T09:06:59.435Z,76.82
2023-01-15T09:09:26.425Z,76.65
2023-01-15T09:11:53.120Z,76.45
2023-01-15T09:14:58.728Z,76.37
2023-01-15T09:17:06.558Z,76.32
2023-01-15T09:19:33.361Z,76.39
2023-01-15T09:22:00.166Z,76.30
2023-01-15T09:24:27.127Z,76.08
2023-01-15T09:26:54.027Z,76.04
2023-01-15T09:29:20.737Z,76.02
2023-01-15T09:31:47.740Z,75.54
2023-01-15T09:34:14.461Z,75.36
2023-01-15T09:36:41.583Z,75.79
2023-01-15T09:39:08.558Z,75.73
2023-01-15T09:42:08.625Z,75.89
2023-01-15T09:45:02.659Z,75.70
2023-01-15T09:47:36.854Z,75.59
2023-01-15T09:50:05.683Z,75.33
2023-01-15T09:52:58.571Z,75.52
2023-01-15T09:55:29.464Z,75.52
2023-01-15T09:57:58.342Z,75.41
2023-01-15T10:00:26.811Z,75.18
2023-01-15T10:03:00.790Z,75.25
2023-01-15T10:05:36.179Z,75.57
2023-01-15T10:08:25.173Z,75.66
2023-01-15T10:10:56.797Z,75.55
2023-01-15T10:13:39.695Z,75.48
2023-01-15T10:16:06.784Z,75.63
2023-01-15T10:18:33.622Z,75.71
2023-01-15T10:21:19.314Z,75.66
2023-01-15T10:24:19.545Z,75.61
2023-01-15T10:26:56.724Z,75.67
2023-01-15T10:29:45.684Z,75.68
2023-01-15T10:32:42.780Z,75.60
2023-01-15T10:35:19.854Z,75.77
2023-01-15T10:37:49.451Z,75.69
2023-01-15T10:40:33.063Z,75.93
2023-01-15T10:43:18.657Z,76.11
2023-01-15T10:46:00.149Z,76.08
2023-01-15T10:48:47.629Z,76.03
2023-01-15T10:51:23.426Z,75.87
2023-01-15T10:54:03.681Z,75.90
2023-01-15T10:56:54.121Z,75.97
2023-01-15T10:59:30.884Z,75.95
2023-01-15T11:01:57.836Z,75.64
2023-01-15T20:44:45.253Z,85.20
2023-01-15T20:47:31.029Z,84.77
2023-01-15T20:49:58.282Z,84.94
2023-01-15T20:52:24.987Z,84.69
2023-01-15T20:54:51.674Z,84.50
2023-01-15T20:57:18.709Z,84.71
2023-01-15T20:59:45.485Z,84.50
2023-01-15T21:02:12.505Z,84.36
2023-01-15T21:04:39.182Z,84.30
2023-01-15T21:07:05.853Z,84.49
2023-01-15T21:09:32.650Z,84.47
2023-01-15T21:11:59.350Z,84.26
2023-01-15T21:14:26.048Z,84.37
2023-01-15T21:16:53.688Z,84.18
2023-01-15T21:19:21.244Z,83.76
2023-01-15T21:21:47.977Z,83.29
2023-01-15T21:24:14.664Z,83.09
2023-01-15T21:26:41.363Z,82.97
2023-01-15T21:29:08.199Z,82.67
2023-01-15T21:31:35.016Z,82.40
2023-01-15T21:34:01.878Z,82.34
2023-01-15T21:36:28.575Z,82.30
2023-01-15T21:38:55.374Z,82.39
2023-01-15T21:41:45.492Z,82.35
2023-01-15T21:44:33.354Z,82.34
2023-01-15T21:47:01.897Z,82.30
2023-01-15T21:49:29.298Z,82.59
2023-01-15T21:51:56.072Z,82.39
2023-01-15T21:54:23.092Z,82.16
2023-01-15T21:56:49.960Z,81.99
2023-01-15T21:59:16.768Z,81.45
2023-01-15T22:01:43.656Z,81.11
2023-01-15T22:04:10.481Z,80.91
2023-01-15T22:06:38.038Z,80.86
2023-01-15T22:09:05.090Z,80.88
2023-01-15T22:11:43.906Z,80.94
2023-01-15T22:14:23.819Z,80.99
2023-01-15T22:16:53.700Z,81.01
2023-01-15T22:19:21.353Z,80.91
2023-01-15T22:21:49.194Z,80.60
2023-01-15T22:24:16.294Z,80.38
2023-01-15T22:26:43.848Z,80.18
2023-01-15T22:29:11.241Z,80.18
2023-01-15T22:31:40.603Z,80.19
2023-01-15T22:34:08.020Z,80.61
2023-01-15T22:36:35.337Z,80.42
2023-01-15T22:39:02.116Z,80.62
2023-01-15T22:41:47.717Z,80.61
2023-01-15T22:44:14.451Z,80.48
2023-01-15T22:46:41.210Z,80.38
2023-01-15T22:49:08.230Z,80.67
2023-01-15T22:51:34.908Z,80.60
2023-01-15T22:54:01.613Z,80.79
2023-01-15T22:56:28.402Z,80.64
2023-01-15T22:58:55.627Z,80.74
2023-01-15T23:01:23.423Z,81.20
2023-01-15T23:03:50.353Z,81.22
2023-01-15T23:06:20.557Z,81.22
2023-01-15T23:08:47.247Z,81.13
2023-01-15T23:11:15.419Z,81.18
2023-01-15T23:13:42.373Z,81.08
2023-01-15T23:16:09.322Z,81.23
2023-01-15T23:18:36.203Z,81.43
2023-01-15T23:21:14.037Z,81.53
2023-01-15T23:23:40.755Z,81.54
2023-01-15T23:26:09.507Z,81.65
2023-01-15T23:28:36.191Z,81.75
2023-01-15T23:31:03.187Z,81.92
2023-01-15T23:33:29.890Z,82.13
2023-01-15T23:35:56.669Z,82.11
2023-01-15T23:38:23.400Z,82.29
2023-01-15T23:40:50.180Z,82.28
2023-01-15T23:43:35.755Z,82.60
2023-01-15T23:46:32.861Z,82.36
2023-01-15T23:49:03.266Z,82.40
2023-01-15T23:51:30.293Z,82.38
2023-01-15T23:53:57.449Z,82.23
2023-01-15T23:56:24.280Z,82.40
2023-01-15T23:58:51.064Z,82.56
